createdAt,value
2023-03-06T00:03:28.364Z,62.41
2023-03-06T00:08:31.092Z,63.19
2023-03-06T00:13:35.395Z,63.50
2023-03-06T00:18:37.958Z,62.64
2023-03-06T00:23:41.574Z,62.90
2023-03-06T00:28:44.029Z,62.46
2023-03-06T00:33:47.248Z,61.62
2023-03-06T00:38:50.303Z,61.98
2023-03-06T00:43:53.191Z,62.26
2023-03-06T00:48:56.191Z,61.29
2023-03-06T00:53:58.782Z,63.51
2023-03-06T00:59:01.309Z,62.45
2023-03-06T01:04:04.370Z,62.64
2023-03-06T01:09:06.887Z,61.91
2023-03-06T01:14:11.135Z,61.82
2023-03-06T01:19:13.662Z,62.13
2023-03-06T01:24:16.726Z,62.11
2023-03-06T01:29:20.239Z,62.20
2023-03-06T01:34:22.795Z,62.09
2023-03-06T01:39:25.904Z,61.95
2023-03-06T01:44:28.492Z,62.28
2023-03-06T01:49:37.869Z,63.41
2023-03-06T01:54:51.996Z,61.66
2023-03-06T02:00:03.548Z,62.08
2023-03-06T02:05:17.298Z,62.54
2023-03-06T02:10:22.334Z,62.31
2023-03-06T02:15:27.446Z,62.40
2023-03-06T02:20:35.609Z,62.45
2023-03-06T02:25:45.928Z,62.48
2023-03-06T02:30:52.767Z,62.22
2023-03-06T02:36:00.189Z,62.06
2023-03-06T02:41:07.247Z,61.51
2023-03-06T02:46:10.344Z,61.61
2023-03-06T02:51:13.036Z,61.50
2023-03-06T02:56:15.923Z,61.71
2023-03-06T03:01:19.068Z,61.58
2023-03-06T03:06:23.106Z,62.37
2023-03-06T03:11:26.722Z,61.54
2023-03-06T03:16:29.861Z,60.61
2023-03-06T03:21:34.341Z,61.70
2023-03-06T03:26:37.462Z,60.81
2023-03-06T03:31:48.100Z,61.00
2023-03-06T03:36:51.151Z,61.94
2023-03-06T03:41:53.669Z,62.08
2023-03-06T03:46:57.432Z,61.71
2023-03-06T03:52:01.211Z,61.62
2023-03-06T03:57:07.979Z,62.39
2023-03-06T04:02:15.652Z,61.90
2023-03-06T04:07:30.727Z,62.08
2023-03-06T04:12:33.236Z,61.56
2023-03-06T04:17:36.900Z,61.31
2023-03-06T04:22:42.906Z,61.73
2023-03-06T04:27:48.589Z,61.30
2023-03-06T04:32:53.910Z,60.36
2023-03-06T04:37:57.543Z,59.85
2023-03-06T04:43:04.178Z,59.97
2023-03-06T04:48:06.814Z,58.33
2023-03-06T04:53:09.896Z,58.18
2023-03-06T04:58:14.142Z,58.13
2023-03-06T05:03:18.077Z,56.23
2023-03-06T05:08:21.198Z,56.43
2023-03-06T05:13:24.878Z,55.59
2023-03-06T05:18:28.713Z,56.55
2023-03-06T05:23:33.558Z,55.56
2023-03-06T05:28:38.632Z,55.69
2023-03-06T05:39:33.375Z,56.19
2023-03-06T05:44:45.310Z,55.82
2023-03-06T05:49:49.708Z,56.30
2023-03-06T05:54:56.355Z,55.47
2023-03-06T06:00:00.098Z,56.33
2023-03-06T06:05:05.943Z,57.25
2023-03-06T06:10:12.626Z,57.69
2023-03-06T06:15:17.282Z,57.70
2023-03-06T06:20:20.683Z,56.95
2023-03-06T06:25:26.461Z,56.83
2023-03-06T06:30:36.595Z,56.12
2023-03-06T06:35:49.235Z,56.30
2023-03-06T06:41:19.344Z,56.15
2023-03-06T06:46:59.006Z,55.81
2023-03-06T06:51:57.554Z,55.43
2023-03-06T06:57:01.729Z,55.23
2023-03-06T07:02:08.677Z,55.09
2023-03-06T07:07:13.790Z,54.45
2023-03-06T07:12:18.816Z,53.89
2023-03-06T07:17:24.418Z,53.61
2023-03-06T07:22:32.014Z,53.51
2023-03-06T07:27:52.838Z,53.10
2023-03-06T07:32:57.576Z,52.81
2023-03-06T07:38:03.129Z,51.60
2023-03-06T07:43:19.161Z,52.51
2023-03-06T07:48:34.048Z,52.84
2023-03-06T07:53:37.685Z,52.53
2023-03-06T07:58:50.106Z,51.99
2023-03-06T08:04:02.376Z,52.47
2023-03-06T08:09:05.466Z,51.54
2023-03-06T08:14:09.378Z,51.41
2023-03-06T08:19:12.597Z,50.99
2023-03-06T08:24:17.561Z,50.66
2023-03-06T08:29:20.453Z,49.43
2023-03-06T08:34:26.612Z,49.62
2023-03-06T08:39:29.786Z,49.53
2023-03-06T08:44:33.297Z,49.14
2023-03-06T08:49:39.854Z,49.38
2023-03-06T08:54:43.999Z,49.10
2023-03-06T08:59:46.612Z,49.01
2023-03-06T09:04:50.986Z,48.51
2023-03-06T09:09:58.590Z,49.18
2023-03-06T09:15:04.667Z,48.39
2023-03-06T09:20:14.456Z,48.00
2023-03-06T09:25:23.781Z,48.46
2023-03-06T09:30:26.995Z,48.17
2023-03-06T09:35:30.550Z,48.35
2023-03-06T09:40:59.212Z,46.75
2023-03-06T09:46:39.904Z,46.51
2023-03-06T09:52:24.914Z,46.10
2023-03-06T09:57:28.780Z,47.37
2023-03-06T10:02:42.096Z,47.23
2023-03-06T10:08:36.422Z,47.63
2023-03-06T10:13:42.391Z,46.70
2023-03-06T10:18:47.264Z,44.58
2023-03-06T10:24:04.480Z,44.95
2023-03-06T10:29:22.656Z,44.96
2023-03-06T10:34:33.658Z,44.22
2023-03-06T10:39:45.990Z,44.81
2023-03-06T10:44:50.722Z,45.13
2023-03-06T10:50:07.338Z,46.54
2023-03-06T10:55:33.098Z,45.81
2023-03-06T11:00:39.296Z,44.73
2023-03-06T11:06:13.318Z,44.15
2023-03-06T11:11:36.905Z,45.65
2023-03-06T11:16:41.751Z,45.26
2023-03-06T11:22:28.153Z,45.80
2023-03-06T11:27:35.963Z,45.08
2023-03-06T11:32:51.182Z,44.12
2023-03-06T11:38:06.876Z,44.13
2023-03-06T11:43:26.413Z,44.85
2023-03-06T11:48:43.776Z,44.34
2023-03-06T11:53:50.497Z,43.59
2023-03-06T11:59:14.298Z,43.71
2023-03-06T12:04:40.210Z,43.37
2023-03-06T12:09:50.923Z,44.79
2023-03-06T12:14:53.811Z,44.96
2023-03-06T12:20:15.632Z,44.56
2023-03-06T12:25:23.753Z,43.59
2023-03-06T12:31:02.834Z,43.19
2023-03-06T12:36:35.396Z,41.52
2023-03-06T12:41:44.417Z,42.87
2023-03-06T12:46:56.017Z,42.73
2023-03-06T12:52:03.636Z,42.02
2023-03-06T12:57:09.497Z,42.05
2023-03-06T13:02:14.791Z,42.81
2023-03-06T13:07:49.341Z,42.25
2023-03-06T13:12:58.099Z,42.36
2023-03-06T13:18:02.196Z,42.44
2023-03-06T13:23:30.332Z,42.59
2023-03-06T13:28:51.225Z,43.34
2023-03-06T13:33:55.862Z,43.27
2023-03-06T13:39:09.075Z,44.15
2023-03-06T13:44:27.521Z,43.20
2023-03-06T13:49:35.045Z,43.70
2023-03-06T14:01:14.718Z,42.91
2023-03-06T14:06:38.102Z,44.33
2023-03-06T14:11:51.184Z,44.42
2023-03-06T14:16:54.618Z,43.55
2023-03-06T14:21:57.968Z,44.95
2023-03-06T14:27:01.825Z,45.27
2023-03-06T14:32:10.090Z,44.80
2023-03-06T14:37:24.893Z,45.01
2023-03-06T14:42:29.283Z,45.68
2023-03-06T14:47:37.336Z,45.77
2023-03-06T14:52:41.403Z,45.64
2023-03-06T14:57:44.188Z,46.41
2023-03-06T15:02:48.752Z,46.39
2023-03-06T15:07:54.225Z,46.71
2023-03-06T15:13:08.383Z,46.55
2023-03-06T15:18:35.650Z,47.03
2023-03-06T15:23:44.031Z,46.50
2023-03-06T15:29:17.020Z,46.85
2023-03-06T15:34:24.019Z,47.07
2023-03-06T15:39:38.304Z,47.19
2023-03-06T15:44:41.008Z,46.80
2023-03-06T15:49:43.381Z,47.13
2023-03-06T15:54:45.867Z,46.76
2023-03-06T15:59:48.280Z,47.61
2023-03-06T16:04:51.961Z,47.48
2023-03-06T16:09:55.618Z,47.43
2023-03-06T16:15:01.610Z,47.43
2023-03-06T16:20:06.367Z,46.65
2023-03-06T16:25:09.167Z,47.35
2023-03-06T16:30:18.967Z,46.87
2023-03-06T16:35:21.555Z,47.29
2023-03-06T16:40:29.205Z,47.87
2023-03-06T16:45:32.063Z,47.52
2023-03-06T16:50:39.020Z,47.92
2023-03-06T16:55:41.841Z,48.34
2023-03-06T17:00:44.257Z,47.83
2023-03-06T17:05:46.715Z,48.23
2023-03-06T17:10:50.251Z,47.67
2023-03-06T17:15:59.395Z,47.68
2023-03-06T17:21:01.970Z,49.32
2023-03-06T17:26:19.479Z,49.35
2023-03-06T17:31:25.580Z,48.79
2023-03-06T17:36:29.841Z,49.33
2023-03-06T17:41:34.372Z,49.85
2023-03-06T17:46:36.901Z,49.61
2023-03-06T17:51:39.441Z,50.63
2023-03-06T17:56:42.405Z,50.85
2023-03-06T18:01:50.596Z,50.55
2023-03-06T18:06:59.602Z,51.09
2023-03-06T18:12:02.413Z,51.41
2023-03-06T18:17:04.817Z,51.58
2023-03-06T18:22:07.179Z,51.54
2023-03-06T18:27:09.703Z,51.42
2023-03-06T18:32:12.450Z,51.62
2023-03-06T18:37:14.985Z,51.59
2023-03-06T18:42:18.739Z,51.53
2023-03-06T18:47:21.266Z,51.57
2023-03-06T18:52:23.497Z,51.36
2023-03-06T18:57:26.016Z,51.80
2023-03-06T19:02:28.379Z,51.89
2023-03-06T19:07:30.823Z,51.38
2023-03-06T19:12:35.708Z,52.62
2023-03-06T19:17:38.446Z,52.40
2023-03-06T19:22:41.267Z,52.49
2023-03-06T19:27:46.237Z,53.13
2023-03-06T19:32:49.087Z,52.66
2023-03-06T19:37:52.716Z,53.09
2023-03-06T19:42:55.887Z,53.33
2023-03-06T19:48:01.152Z,52.12
2023-03-06T19:53:04.752Z,52.07
2023-03-06T19:58:07.883Z,53.07
2023-03-06T20:03:10.237Z,52.61
2023-03-06T20:08:12.640Z,53.01
2023-03-06T20:13:16.626Z,53.46
2023-03-06T20:18:19.607Z,51.97
2023-03-06T20:23:22.020Z,52.28
2023-03-06T20:28:24.526Z,53.15
2023-03-06T20:33:27.850Z,53.08
2023-03-06T20:38:30.723Z,52.44
2023-03-06T20:43:33.238Z,53.80
2023-03-06T20:48:36.117Z,52.75
2023-03-06T20:53:39.077Z,52.36
2023-03-06T20:58:42.064Z,53.32
2023-03-06T21:03:44.825Z,53.67
2023-03-06T21:08:47.882Z,53.80
2023-03-06T21:13:50.873Z,54.32
2023-03-06T21:18:56.179Z,54.02
2023-03-06T21:23:59.265Z,54.68
2023-03-06T21:29:02.989Z,54.32
2023-03-06T21:34:06.474Z,54.12
2023-03-06T21:39:08.883Z,54.24
2023-03-06T21:44:11.269Z,54.56
2023-03-06T21:49:13.633Z,54.64
2023-03-06T21:54:16.410Z,54.78
2023-03-06T21:59:19.204Z,54.57
2023-03-06T22:04:23.718Z,56.26
2023-03-06T22:09:26.158Z,54.79
2023-03-06T22:14:29.698Z,55.53
2023-03-06T22:19:33.428Z,56.45
2023-03-06T22:24:36.274Z,56.13
2023-03-06T22:29:39.076Z,56.49
2023-03-06T22:34:42.057Z,56.30
2023-03-06T22:39:44.376Z,56.08
2023-03-06T22:44:47.845Z,55.78
2023-03-06T22:49:50.718Z,55.95
2023-03-06T22:54:53.488Z,55.02
2023-03-06T22:59:56.225Z,55.35
2023-03-06T23:05:00.842Z,54.66
2023-03-06T23:10:07.089Z,55.20
2023-03-06T23:15:28.626Z,54.32
2023-03-06T23:20:49.803Z,54.95
2023-03-06T23:26:14.922Z,53.55
2023-03-06T23:31:22.769Z,54.25
2023-03-06T23:36:25.606Z,53.80
2023-03-06T23:41:29.339Z,54.47
2023-03-06T23:46:32.457Z,53.92
2023-03-06T23:51:34.977Z,54.04
2023-03-06T23:56:37.625Z,55.00
